Time;durP1;ratioP1;P1;durP2;ratioP2;P2;SDS_P1;SDS_P2;PMS_P1;PMS_P2;Temp;Humidity;BMP_temperature;BMP_pressure;BME280_temperature;BME280_humidity;BME280_pressure;Samples;Min_cycle;Max_cycle;Signal;HPM_P1;HPM_P2
2023/03/15 00:01:53;;;;;;;38.58;2.15;;;;;;;22.40;56.78;98685.22;7310887;19;129198;-40
2023/03/15 00:04:18;;;;;;;34.55;2.10;;;;;;;22.37;56.74;98683.78;7309647;19;129445;-42
2023/03/15 00:06:44;;;;;;;31.73;1.87;;;;;;;22.41;57.42;98685.06;7309362;19;129579;-40
2023/03/15 00:09:10;;;;;;;57.30;2.97;;;;;;;22.41;57.92;98685.06;7309318;19;129389;-38
2023/03/15 00:11:35;;;;;;;59.77;3.47;;;;;;;22.40;57.49;98688.69;7309823;19;129433;-38
2023/03/15 00:14:01;;;;;;;18.67;1.23;;;;;;;22.41;56.28;98690.31;7310063;19;129791;-40
2023/03/15 00:16:26;;;;;;;45.65;2.58;;;;;;;22.35;56.95;98688.34;7307643;19;129379;-40
2023/03/15 00:18:53;;;;;;;56.70;3.10;;;;;;;22.36;57.21;98694.41;7310246;19;129025;-39
2023/03/15 00:21:19;;;;;;;48.50;2.85;;;;;;;22.34;56.40;98699.00;7309352;19;129243;-40
2023/03/15 00:23:45;;;;;;;29.02;1.55;;;;;;;22.31;57.56;98701.97;7305839;19;129078;-40
2023/03/15 00:26:10;;;;;;;51.60;2.87;;;;;;;22.30;56.85;98700.31;7308144;19;129406;-40
2023/03/15 00:28:36;;;;;;;60.60;3.15;;;;;;;22.27;57.46;98714.56;7309715;19;128985;-40
2023/03/15 00:31:06;;;;;;;34.25;1.95;;;;;;;22.24;57.78;98707.03;7309850;19;129872;-40
2023/03/15 00:33:33;;;;;;;30.48;1.75;;;;;;;22.23;57.32;98712.44;7307197;19;129588;-40
2023/03/15 00:36:02;;;;;;;16.95;1.15;;;;;;;22.23;57.28;98715.06;7308088;19;131646;-40
2023/03/15 00:38:28;;;;;;;56.92;3.13;;;;;;;22.26;58.33;98719.97;7308337;19;130694;-40
2023/03/15 00:40:53;;;;;;;45.90;2.67;;;;;;;22.20;57.05;98720.59;7309733;19;130271;-39
2023/03/15 00:43:18;;;;;;;36.65;2.00;;;;;;;22.22;57.77;98722.09;7306940;19;128891;-40
2023/03/15 00:45:44;;;;;;;40.23;2.30;;;;;;;22.25;57.78;98729.59;7307983;19;128911;-40
2023/03/15 00:48:09;;;;;;;52.13;2.83;;;;;;;22.22;57.62;98736.97;7309931;19;129020;-40
2023/03/15 00:50:35;;;;;;;39.25;2.17;;;;;;;22.08;57.31;98721.94;7309609;19;130166;-39
2023/03/15 00:53:00;;;;;;;31.17;1.63;;;;;;;22.19;57.25;98743.38;7306799;19;129269;-39
2023/03/15 00:55:26;;;;;;;67.20;3.75;;;;;;;22.17;57.25;98736.66;7306482;19;129397;-40
2023/03/15 00:57:51;;;;;;;56.40;2.83;;;;;;;22.15;57.69;98741.25;7304463;19;129216;-40
2023/03/15 01:00:22;;;;;;;31.23;1.83;;;;;;;22.18;57.50;98744.34;7308783;19;131021;-39
2023/03/15 01:02:48;;;;;;;35.45;1.92;;;;;;;22.16;57.45;98746.31;7307072;19;128826;-39
2023/03/15 01:05:13;;;;;;;72.45;4.00;;;;;;;22.18;58.01;98751.38;7308344;19;129334;-39
2023/03/15 01:07:38;;;;;;;29.15;1.67;;;;;;;22.16;58.19;98753.34;7308572;19;129697;-41
2023/03/15 01:10:06;;;;;;;33.55;1.90;;;;;;;22.15;57.45;98754.34;7308075;19;129216;-39
2023/03/15 01:12:33;;;;;;;57.28;3.20;;;;;;;22.14;57.22;98752.69;7307274;19;129536;-39
2023/03/15 01:15:00;;;;;;;26.35;1.63;;;;;;;22.11;57.02;98753.84;7308723;19;129595;-39
2023/03/15 01:17:25;;;;;;;77.90;4.15;;;;;;;22.10;57.63;98754.81;7312568;19;129068;-40
2023/03/15 01:19:50;;;;;;;36.50;2.00;;;;;;;22.13;57.74;98764.16;7315876;19;129675;-38
2023/03/15 01:22:17;;;;;;;37.70;2.03;;;;;;;22.16;58.52;98769.06;7314227;19;129122;-41
2023/03/15 01:24:42;;;;;;;;;;;;;;;22.19;60.35;98763.50;7315774;19;129971;-40
2023/03/15 01:27:08;;;;;;;38.85;2.17;;;;;;;22.17;58.67;98773.28;7314193;19;129182;-38
2023/03/15 01:29:34;;;;;;;38.20;2.20;;;;;;;22.05;58.26;98756.31;7316039;19;129858;-40
2023/03/15 01:31:59;;;;;;;35.10;1.83;;;;;;;22.16;57.86;98774.28;7314639;19;129183;-41
2023/03/15 01:34:24;;;;;;;62.03;3.28;;;;;;;22.17;58.23;98773.28;7315070;19;129488;-40
2023/03/15 01:36:53;;;;;;;39.17;2.22;;;;;;;22.16;58.33;98779.53;7313135;19;129286;-40
2023/03/15 01:39:19;;;;;;;21.77;1.35;;;;;;;22.17;57.30;98773.28;7315380;19;130539;-41
2023/03/15 01:41:44;;;;;;;33.35;1.90;;;;;;;22.17;57.98;98768.06;7312403;19;131136;-39
2023/03/15 01:44:15;;;;;;;63.42;3.30;;;;;;;22.15;58.59;98775.28;7314180;19;130137;-41
2023/03/15 01:46:40;;;;;;;43.40;2.28;;;;;;;22.16;57.93;98771.66;7313780;19;129717;-41
2023/03/15 01:49:18;;;;;;;3.22;0.40;;;;;;;22.18;59.60;98780.19;7315273;19;129153;-40
2023/03/15 01:51:58;;;;;;;49.10;2.67;;;;;;;22.17;59.37;98778.53;7315380;19;129220;-41
2023/03/15 01:54:32;;;;;;;62.25;3.55;;;;;;;22.18;58.85;98777.56;7314248;19;129083;-39
2023/03/15 01:57:12;;;;;;;39.33;2.13;;;;;;;22.16;59.64;98776.91;7311447;19;129291;-41
2023/03/15 01:59:54;;;;;;;51.22;2.80;;;;;;;22.17;58.92;98773.28;7313875;19;130224;-40
2023/03/15 02:02:23;;;;;;;38.55;2.10;;;;;;;22.14;57.92;98773.63;7312938;19;128898;-39
2023/03/15 02:04:56;;;;;;;39.92;2.20;;;;;;;22.18;58.79;98780.19;7314634;19;129007;-42
2023/03/15 02:07:25;;;;;;;17.02;1.13;;;;;;;22.18;58.05;98785.44;7313945;19;131983;-40
2023/03/15 02:10:02;;;;;;;36.95;2.05;;;;;;;22.17;59.63;98775.91;7313745;19;129215;-41
2023/03/15 02:12:30;;;;;;;65.05;3.75;;;;;;;22.16;59.14;98776.91;7310189;19;129217;-40
2023/03/15 02:14:58;;;;;;;85.30;4.78;;;;;;;22.17;58.17;98783.78;7310738;19;129426;-40
2023/03/15 02:17:32;;;;;;;53.28;2.85;;;;;;;22.17;58.36;98781.16;7308489;19;129189;-39
2023/03/15 02:20:19;;;;;;;27.15;1.58;;;;;;;22.19;59.95;98784.44;7314012;19;129711;-40
2023/03/15 02:22:49;;;;;;;36.25;2.03;;;;;;;22.18;57.85;98785.44;7313224;19;130606;-40
2023/03/15 02:25:23;;;;;;;86.07;4.93;;;;;;;22.21;59.23;98779.84;7312283;19;129526;-40
2023/03/15 02:27:50;;;;;;;44.95;2.38;;;;;;;22.18;58.34;98785.44;7312938;19;129572;-39
2023/03/15 02:30:15;;;;;;;;;;;;;;;22.19;59.64;98792.28;7313704;19;129444;-39
2023/03/15 02:32:41;;;;;;;35.53;1.92;;;;;;;22.17;58.61;98791.63;7312695;19;129192;-38
2023/03/15 02:35:06;;;;;;;36.25;2.28;;;;;;;22.15;57.83;98791.78;7312854;19;128680;-41
2023/03/15 02:37:32;;;;;;;46.60;2.63;;;;;;;22.17;58.78;98796.84;7309391;19;129324;-39
2023/03/15 02:39:57;;;;;;;59.80;3.27;;;;;;;22.14;58.55;98799.81;7313099;19;129356;-41
2023/03/15 02:42:23;;;;;;;48.75;3.08;;;;;;;22.18;58.57;98806.38;7310487;19;129013;-40
2023/03/15 02:44:50;;;;;;;37.33;2.10;;;;;;;22.16;58.80;98803.91;7312189;19;128816;-40
2023/03/15 02:47:23;;;;;;;43.95;2.53;;;;;;;22.18;58.76;98809.78;7310196;19;130061;-39
2023/03/15 02:49:50;;;;;;;54.92;3.03;;;;;;;22.21;57.63;98811.28;7312684;19;129390;-40
2023/03/15 02:52:16;;;;;;;54.40;2.88;;;;;;;22.20;58.46;98820.91;7311933;19;129035;-41
2023/03/15 02:54:42;;;;;;;33.05;1.90;;;;;;;22.20;58.53;98814.84;7312356;19;129439;-41
2023/03/15 02:57:10;;;;;;;34.13;1.85;;;;;;;22.21;58.22;98816.50;7310220;19;129194;-40
2023/03/15 02:59:35;;;;;;;73.00;3.88;;;;;;;22.19;58.33;98810.63;7310640;19;129504;-40
2023/03/15 03:02:01;;;;;;;36.35;1.92;;;;;;;22.24;57.42;98821.41;7310347;19;129127;-41
2023/03/15 03:04:27;;;;;;;71.07;3.97;;;;;;;22.12;57.98;98812.22;7311342;19;129223;-41
2023/03/15 03:06:52;;;;;;;52.05;2.92;;;;;;;22.21;58.11;98817.34;7310410;19;129144;-41
2023/03/15 03:09:17;;;;;;;57.00;2.88;;;;;;;22.22;58.06;98824.19;7311883;19;129241;-39
2023/03/15 03:11:43;;;;;;;36.13;1.97;;;;;;;22.21;58.95;98833.06;7311356;19;129077;-40
2023/03/15 03:14:08;;;;;;;29.77;1.67;;;;;;;22.18;58.03;98833.34;7312577;19;130705;-41
2023/03/15 03:16:34;;;;;;;42.87;2.47;;;;;;;22.18;57.97;98835.16;7308358;19;130317;-40
2023/03/15 03:19:00;;;;;;;75.50;3.87;;;;;;;22.20;58.64;98841.03;7312021;19;129191;-40
2023/03/15 03:21:25;;;;;;;44.93;2.57;;;;;;;22.17;58.39;98839.56;7311669;19;129056;-41
2023/03/15 03:23:51;;;;;;;36.85;2.00;;;;;;;22.20;58.98;98851.50;7308736;19;129068;-41
2023/03/15 03:26:17;;;;;;;66.20;4.05;;;;;;;22.19;57.89;98855.13;7309539;19;129267;-39
2023/03/15 03:28:47;;;;;;;47.13;2.47;;;;;;;22.21;59.22;98858.41;7309956;19;129852;-41
2023/03/15 03:31:20;;;;;;;28.30;1.60;;;;;;;22.22;58.85;98854.78;7310809;19;130252;-41
2023/03/15 03:33:46;;;;;;;35.83;2.30;;;;;;;22.26;57.39;98861.34;7308123;19;129614;-41
2023/03/15 03:36:12;;;;;;;29.38;1.70;;;;;;;22.26;58.66;98862.19;7308618;19;129481;-41
2023/03/15 03:38:42;;;;;;;50.17;2.75;;;;;;;22.30;57.76;98873.97;7309746;19;129467;-40
2023/03/15 03:41:09;;;;;;;36.95;2.03;;;;;;;22.30;57.74;98875.75;7311737;19;129105;-40
2023/03/15 03:43:35;;;;;;;41.95;2.38;;;;;;;22.32;57.93;98876.41;7309413;19;129529;-39
2023/03/15 03:46:01;;;;;;;33.97;1.95;;;;;;;22.30;57.78;98883.59;7308539;19;130105;-40
2023/03/15 03:48:26;;;;;;;45.78;2.53;;;;;;;22.24;58.36;98885.09;7311523;19;129428;-39
2023/03/15 03:50:51;;;;;;;36.58;2.03;;;;;;;22.25;58.04;98886.72;7312835;19;129631;-39
2023/03/15 03:53:17;;;;;;;24.05;1.50;;;;;;;22.25;58.83;98891.13;7309889;19;129550;-40
2023/03/15 03:55:42;;;;;;;48.85;2.80;;;;;;;22.24;58.47;98895.56;7309638;19;129328;-41
2023/03/15 03:58:08;;;;;;;58.53;2.87;;;;;;;22.24;58.11;98899.97;7305126;19;130021;-41
2023/03/15 04:00:34;;;;;;;23.17;1.38;;;;;;;22.24;58.46;98898.19;7310959;19;130373;-40
2023/03/15 04:03:00;;;;;;;34.97;2.00;;;;;;;22.22;58.05;98897.50;7308353;19;129041;-40
2023/03/15 04:05:27;;;;;;;39.78;2.17;;;;;;;22.24;58.58;98902.59;7308872;19;129401;-40
2023/03/15 04:07:52;;;;;;;51.30;2.72;;;;;;;22.25;58.26;98896.34;7309815;19;129784;-42
2023/03/15 04:10:18;;;;;;;21.10;1.33;;;;;;;22.27;57.27;98904.88;7311880;19;129029;-40
2023/03/15 04:12:43;;;;;;;31.47;1.70;;;;;;;22.23;58.49;98904.38;7308902;19;129595;-41
2023/03/15 04:15:13;;;;;;;59.08;3.60;;;;;;;22.25;58.88;98907.66;7309283;19;129353;-41
2023/03/15 04:17:38;;;;;;;63.70;3.47;;;;;;;22.25;58.59;98917.31;7305872;19;129750;-40
2023/03/15 04:20:06;;;;;;;37.40;2.05;;;;;;;22.24;57.93;98915.69;7310550;19;129473;-38
2023/03/15 04:22:33;;;;;;;44.13;2.35;;;;;;;22.26;58.19;98918.97;7308964;19;129564;-40
2023/03/15 04:25:00;;;;;;;77.53;4.40;;;;;;;22.24;58.03;98931.38;7309158;19;130221;-39
2023/03/15 04:27:26;;;;;;;63.00;3.33;;;;;;;22.23;58.47;98932.38;7307404;19;130068;-39
2023/03/15 04:29:52;;;;;;;59.03;3.43;;;;;;;22.22;58.24;98938.56;7310512;19;129379;-40
2023/03/15 04:32:17;;;;;;;18.13;1.25;;;;;;;22.23;57.80;98946.28;7309065;19;129105;-40
2023/03/15 04:34:43;;;;;;;32.97;2.07;;;;;;;22.11;56.88;98941.50;7309539;19;129326;-40
2023/03/15 04:37:08;;;;;;;53.65;2.80;;;;;;;22.02;57.21;98945.88;7308893;19;129621;-40
2023/03/15 04:39:34;;;;;;;27.50;1.65;;;;;;;22.02;57.06;98948.50;7309704;19;129118;-41
2023/03/15 04:41:59;;;;;;;49.65;2.88;;;;;;;22.03;56.95;98938.84;7308402;19;129661;-39
2023/03/15 04:44:25;;;;;;;60.50;3.40;;;;;;;22.50;55.70;98958.28;7309052;19;129561;-40
2023/03/15 04:46:51;;;;;;;27.60;1.87;;;;;;;22.78;55.00;98957.88;7308578;19;130334;-40
2023/03/15 04:49:17;;;;;;;15.85;1.10;;;;;;;23.12;53.56;98960.34;7309996;19;129319;-39
2023/03/15 04:51:42;;;;;;;31.93;1.67;;;;;;;23.38;52.69;98968.88;7312428;19;129564;-41
2023/03/15 04:54:07;;;;;;;46.97;2.50;;;;;;;23.55;52.38;98967.84;7315891;19;129319;-40
2023/03/15 04:56:35;;;;;;;56.07;2.83;;;;;;;23.69;51.87;98975.06;7309931;19;130179;-40
2023/03/15 04:59:01;;;;;;;56.22;3.25;;;;;;;23.88;51.54;98979.09;7311942;19;129393;-40
2023/03/15 05:01:30;;;;;;;96.70;5.47;;;;;;;23.93;51.22;98969.72;7311039;19;129230;-41
2023/03/15 05:03:57;;;;;;;48.13;2.58;;;;;;;23.93;51.26;98980.22;7314280;19;130639;-39
2023/03/15 05:06:23;;;;;;;53.35;2.78;;;;;;;24.03;50.92;98973.00;7312311;19;129462;-41
2023/03/15 05:08:48;;;;;;;37.80;2.13;;;;;;;24.00;50.57;98965.47;7317703;19;129016;-40
2023/03/15 05:11:14;;;;;;;52.90;2.93;;;;;;;24.10;50.33;98987.09;7313973;19;129943;-39
2023/03/15 05:13:39;;;;;;;51.85;2.72;;;;;;;24.19;50.87;98983.44;7312430;19;130072;-39
2023/03/15 05:16:05;;;;;;;22.43;1.70;;;;;;;24.12;47.98;98989.53;7314081;19;129648;-40
2023/03/15 05:18:30;;;;;;;114.43;6.63;;;;;;;24.16;48.82;99004.78;7302069;19;129499;-38
2023/03/15 05:20:56;;;;;;;33.58;2.10;;;;;;;24.26;49.44;99005.41;7310330;19;129451;-40
2023/03/15 05:23:22;;;;;;;35.10;2.33;;;;;;;24.20;48.94;99010.50;7312602;19;130090;-40
2023/03/15 05:25:48;;;;;;;;;;;;;;;24.12;49.47;98997.41;7314960;19;129648;-40
2023/03/15 05:28:17;;;;;;;80.60;4.78;;;;;;;24.26;49.52;99020.34;7306537;19;129558;-42
2023/03/15 05:30:42;;;;;;;106.22;6.22;;;;;;;24.30;49.11;99006.69;7304523;19;131113;-41
2023/03/15 05:33:07;;;;;;;47.90;2.67;;;;;;;24.34;49.32;99023.78;7300325;19;131013;-39
2023/03/15 05:35:33;;;;;;;63.80;3.63;;;;;;;24.36;49.69;99032.28;7305179;19;130578;-39
2023/03/15 05:37:58;;;;;;;43.57;2.73;;;;;;;24.34;49.57;99031.66;7308306;19;129952;-39
2023/03/15 05:40:23;;;;;;;61.37;3.63;;;;;;;24.33;49.41;99037.88;7313220;19;130194;-41
2023/03/15 05:42:49;;;;;;;73.47;3.83;;;;;;;24.38;49.88;99045.25;7304290;19;129684;-39
2023/03/15 05:45:14;;;;;;;45.67;2.77;;;;;;;24.46;49.38;99050.50;7309730;19;132124;-39
2023/03/15 05:47:39;;;;;;;32.90;2.20;;;;;;;24.48;49.46;99045.06;7311778;19;130260;-41
2023/03/15 05:50:05;;;;;;;87.25;5.13;;;;;;;24.47;49.43;99052.13;7309434;19;128976;-40
2023/03/15 05:52:30;;;;;;;87.07;4.97;;;;;;;24.45;49.26;99057.53;7305533;19;132105;-40
2023/03/15 05:54:56;;;;;;;66.80;4.47;;;;;;;24.48;49.46;99067.72;7308314;19;129768;-42
2023/03/15 05:57:21;;;;;;;65.13;4.20;;;;;;;24.39;49.95;99065.28;7301751;19;130922;-41
2023/03/15 05:59:47;;;;;;;118.33;6.67;;;;;;;24.37;49.78;99075.97;7303783;19;130918;-41
2023/03/15 06:02:12;;;;;;;47.27;2.57;;;;;;;24.32;49.98;99078.28;7306027;19;129614;-41
2023/03/15 06:04:38;;;;;;;38.70;2.22;;;;;;;24.19;49.98;99077.19;7313113;19;129348;-39
2023/03/15 06:07:03;;;;;;;28.50;1.63;;;;;;;24.10;50.06;99084.25;7312688;19;130684;-39
2023/03/15 06:09:28;;;;;;;66.85;3.83;;;;;;;23.94;50.66;99086.91;7311120;19;130056;-40
2023/03/15 06:11:54;;;;;;;65.10;3.83;;;;;;;23.74;50.77;99071.66;7311940;19;129069;-41
2023/03/15 06:14:20;;;;;;;39.23;2.57;;;;;;;23.72;51.20;99089.38;7311305;19;129708;-39
2023/03/15 06:16:45;;;;;;;32.83;1.80;;;;;;;23.65;51.55;99089.22;7311312;19;129285;-40
2023/03/15 06:19:11;;;;;;;74.32;3.90;;;;;;;23.62;51.84;99092.16;7307787;19;129859;-40
2023/03/15 06:21:36;;;;;;;16.27;1.07;;;;;;;23.62;52.26;99092.16;7311017;19;130704;-40
2023/03/15 06:24:01;;;;;;;45.90;2.77;;;;;;;23.61;51.51;99090.53;7304066;19;130129;-40
2023/03/15 06:26:27;;;;;;;57.23;3.37;;;;;;;23.66;51.89;99098.75;7312661;19;129216;-40
2023/03/15 06:28:52;;;;;;;121.77;7.00;;;;;;;23.73;51.27;99107.59;7302597;19;129207;-39
2023/03/15 06:31:18;;;;;;;102.37;6.03;;;;;;;23.82;51.56;99111.03;7297939;19;129447;-41
2023/03/15 06:33:43;;;;;;;45.63;2.57;;;;;;;23.87;51.32;99114.78;7299358;19;129779;-40
2023/03/15 06:36:09;;;;;;;31.40;2.03;;;;;;;23.91;51.02;99123.16;7308980;19;129656;-39
2023/03/15 06:38:34;;;;;;;83.38;4.28;;;;;;;23.89;50.92;99115.47;7307370;19;129302;-40
2023/03/15 06:41:00;;;;;;;28.35;1.63;;;;;;;23.99;51.30;99118.75;7312385;19;129598;-42
2023/03/15 06:43:25;;;;;;;50.30;2.87;;;;;;;24.04;50.51;99119.09;7308840;19;129375;-40
2023/03/15 06:45:52;;;;;;;58.65;3.55;;;;;;;24.12;50.67;99132.19;7310781;19;129506;-40
2023/03/15 06:48:18;;;;;;;49.85;2.65;;;;;;;24.18;50.90;99128.88;7313978;19;129229;-39
2023/03/15 06:50:43;;;;;;;33.20;1.97;;;;;;;24.11;50.21;99111.34;7314517;19;129632;-39
2023/03/15 06:53:09;;;;;;;28.42;1.70;;;;;;;24.31;50.57;99134.44;7310404;19;129094;-40
2023/03/15 06:55:34;;;;;;;40.33;2.40;;;;;;;24.29;50.57;99139.06;7309217;19;129338;-40
2023/03/15 06:58:00;;;;;;;70.30;3.90;;;;;;;24.39;50.39;99142.28;7309937;19;129307;-39
2023/03/15 07:00:25;;;;;;;31.80;1.90;;;;;;;24.45;49.81;99141.63;7311862;19;129597;-39
2023/03/15 07:02:50;;;;;;;33.67;1.90;;;;;;;24.44;49.61;99147.88;7307728;19;130361;-40
2023/03/15 07:05:16;;;;;;;84.28;4.95;;;;;;;24.39;49.53;99142.28;7309644;19;129297;-39
2023/03/15 07:07:41;;;;;;;33.23;1.73;;;;;;;24.28;50.52;99150.53;7313199;19;129508;-39
2023/03/15 07:10:07;;;;;;;33.42;1.92;;;;;;;24.25;50.25;99150.88;7310665;19;129445;-40
2023/03/15 07:12:32;;;;;;;42.40;2.45;;;;;;;24.19;50.56;99151.56;7308459;19;129530;-39
2023/03/15 07:14:57;;;;;;;100.33;5.60;;;;;;;23.95;51.07;99133.16;7308638;19;129329;-39
2023/03/15 07:17:23;;;;;;;26.38;1.65;;;;;;;23.91;51.40;99145.00;7312052;19;129619;-40
2023/03/15 07:19:49;;;;;;;48.45;2.78;;;;;;;23.79;51.51;99138.44;7311458;19;129107;-41
2023/03/15 07:22:14;;;;;;;28.23;1.80;;;;;;;23.68;51.48;99151.91;7309877;19;129327;-39
2023/03/15 07:24:39;;;;;;;58.00;3.07;;;;;;;23.57;52.23;99133.03;7311994;19;131060;-40
2023/03/15 07:27:05;;;;;;;62.50;3.63;;;;;;;23.59;52.16;99147.63;7308367;19;129796;-39
2023/03/15 07:29:30;;;;;;;25.08;1.73;;;;;;;23.62;52.21;99147.28;7306965;19;130111;-40
2023/03/15 07:31:56;;;;;;;86.70;5.10;;;;;;;23.67;51.78;99152.88;7304797;19;129429;-40
2023/03/15 07:34:21;;;;;;;80.67;4.47;;;;;;;23.68;51.79;99149.28;7300098;19;131149;-41
2023/03/15 07:36:46;;;;;;;22.30;1.50;;;;;;;23.75;52.23;99155.47;7309828;19;129750;-40
2023/03/15 07:39:12;;;;;;;33.57;1.83;;;;;;;23.86;51.21;99160.44;7310813;19;129763;-40
2023/03/15 07:41:37;;;;;;;53.97;2.93;;;;;;;23.94;50.92;99154.34;7310231;19;129576;-39
2023/03/15 07:44:03;;;;;;;62.43;3.50;;;;;;;24.00;51.52;99159.78;7311312;19;129553;-39
2023/03/15 07:46:29;;;;;;;61.85;3.60;;;;;;;24.09;50.95;99156.16;7310474;19;129374;-40
2023/03/15 07:48:54;;;;;;;41.50;2.23;;;;;;;24.14;51.01;99156.50;7309087;19;130244;-40
2023/03/15 07:51:19;;;;;;;61.87;3.53;;;;;;;24.21;50.88;99165.31;7310644;19;129141;-39
2023/03/15 07:53:45;;;;;;;39.03;2.20;;;;;;;24.22;50.38;99153.03;7308391;19;129651;-39
2023/03/15 07:56:10;;;;;;;39.43;2.40;;;;;;;24.36;49.93;99160.22;7310095;19;128906;-40
2023/03/15 07:58:35;;;;;;;29.83;1.90;;;;;;;24.44;50.31;99161.00;7306705;19;129441;-38
2023/03/15 08:01:01;;;;;;;60.15;3.13;;;;;;;24.49;49.91;99163.94;7311214;19;129756;-40
2023/03/15 08:03:26;;;;;;;45.05;2.50;;;;;;;24.41;49.93;99150.03;7308928;19;129297;-39
2023/03/15 08:05:52;;;;;;;27.90;1.80;;;;;;;24.46;49.96;99169.53;7308575;19;129062;-39
2023/03/15 08:08:18;;;;;;;41.90;2.37;;;;;;;24.40;49.98;99167.59;7307768;19;129838;-40
2023/03/15 08:10:44;;;;;;;97.27;5.40;;;;;;;24.38;50.80;99176.63;7308988;19;130103;-41
2023/03/15 08:13:09;;;;;;;37.53;2.23;;;;;;;24.20;50.73;99179.47;7308922;19;130028;-41
2023/03/15 08:15:35;;;;;;;37.53;2.17;;;;;;;24.06;50.48;99185.41;7310071;19;129208;-39
2023/03/15 08:18:01;;;;;;;33.63;1.87;;;;;;;23.98;50.87;99188.00;7307364;19;129231;-39
2023/03/15 08:20:27;;;;;;;52.90;2.92;;;;;;;23.84;51.43;99185.19;7311254;19;130538;-41
2023/03/15 08:22:53;;;;;;;37.43;2.47;;;;;;;23.74;52.03;99189.78;7309538;19;130049;-39
2023/03/15 08:25:22;;;;;;;69.50;4.03;;;;;;;23.70;51.97;99199.78;7312173;19;128970;-39
2023/03/15 08:27:48;;;;;;;76.43;4.30;;;;;;;23.59;51.77;99210.59;7313248;19;130264;-41
2023/03/15 08:30:14;;;;;;;120.63;6.80;;;;;;;23.59;51.90;99210.59;7299832;19;130414;-42
2023/03/15 08:32:42;;;;;;;35.40;2.05;;;;;;;23.62;52.24;99218.13;7306022;19;130078;-40
2023/03/15 08:35:08;;;;;;;100.18;6.07;;;;;;;23.75;52.13;99215.84;7311662;19;130233;-40
2023/03/15 08:37:34;;;;;;;43.95;2.38;;;;;;;23.70;52.19;99204.22;7308992;19;129473;-40
2023/03/15 08:40:09;;;;;;;64.87;3.60;;;;;;;23.82;51.27;99229.97;7315585;19;129692;-40
2023/03/15 08:42:36;;;;;;;40.08;2.35;;;;;;;23.93;51.39;99237.53;7316358;19;129133;-40
2023/03/15 08:45:03;;;;;;;38.40;2.33;;;;;;;24.03;51.54;99230.34;7316034;19;130930;-40
2023/03/15 08:47:28;;;;;;;45.28;2.63;;;;;;;24.12;50.68;99232.00;7313990;19;129814;-40
2023/03/15 08:49:53;;;;;;;57.77;3.13;;;;;;;24.16;51.16;99241.19;7316158;19;129599;-40
2023/03/15 08:52:20;;;;;;;55.08;3.10;;;;;;;24.26;50.68;99251.53;7313223;19;130320;-40
2023/03/15 08:54:46;;;;;;;30.98;1.85;;;;;;;24.31;50.73;99259.75;7315740;19;128826;-38
2023/03/15 08:57:14;;;;;;;35.67;1.97;;;;;;;24.38;50.29;99256.28;7316009;19;129504;-40
2023/03/15 08:59:39;;;;;;;58.50;3.00;;;;;;;24.46;50.42;99266.78;7313761;19;129332;-39
2023/03/15 09:02:05;;;;;;;16.03;0.97;;;;;;;24.53;49.88;99274.81;7314678;19;129833;-41
2023/03/15 09:04:32;;;;;;;33.43;1.90;;;;;;;24.58;50.07;99269.09;7314791;19;129233;-40
2023/03/15 09:06:57;;;;;;;;;;;;;;;24.54;49.81;99259.88;7314515;19;130336;-40
2023/03/15 09:09:23;;;;;;;57.40;3.10;;;;;;;24.51;49.68;99260.22;7314229;19;130843;-41
2023/03/15 09:11:49;;;;;;;34.93;2.03;;;;;;;24.42;50.32;99268.13;7307181;19;130388;-41
2023/03/15 09:14:14;;;;;;;12.97;1.00;;;;;;;24.34;50.21;99262.88;7315489;19;128847;-39
2023/03/15 09:16:39;;;;;;;38.75;2.28;;;;;;;24.28;50.68;99265.31;7314364;19;129203;-40
2023/03/15 09:19:05;;;;;;;49.07;2.77;;;;;;;24.11;50.83;99275.00;7311945;19;129319;-40
2023/03/15 09:21:30;;;;;;;45.95;2.75;;;;;;;24.00;51.47;99277.13;7315101;19;128796;-40
2023/03/15 09:23:56;;;;;;;59.83;3.42;;;;;;;23.86;51.56;99269.88;7313892;19;130870;-39
2023/03/15 09:26:22;;;;;;;42.70;2.53;;;;;;;23.81;51.68;99278.22;7314575;19;129331;-40
2023/03/15 09:28:47;;;;;;;82.67;4.57;;;;;;;23.74;51.86;99276.41;7312423;19;130011;-39
2023/03/15 09:31:12;;;;;;;31.00;1.87;;;;;;;23.71;52.22;99274.94;7315704;19;129948;-41
2023/03/15 09:33:38;;;;;;;46.35;2.67;;;;;;;23.73;52.09;99275.59;7312577;19;129227;-42
2023/03/15 09:36:04;;;;;;;57.20;3.13;;;;;;;23.80;52.26;99281.81;7309889;19;130509;-41
2023/03/15 09:38:29;;;;;;;44.63;2.70;;;;;;;23.88;52.03;99275.78;7312556;19;129360;-40
2023/03/15 09:40:57;;;;;;;38.97;2.23;;;;;;;23.95;51.64;99280.22;7315701;19;128982;-41
2023/03/15 09:43:34;;;;;;;26.17;1.65;;;;;;;24.04;51.24;99274.03;7313018;19;129524;-40
2023/03/15 09:46:05;;;;;;;;;;;;;;;24.04;51.07;99279.28;7311634;19;130367;-40
2023/03/15 09:48:38;;;;;;;67.57;3.60;;;;;;;24.18;51.26;99286.50;7313455;19;130095;-40
2023/03/15 09:51:15;;;;;;;65.60;3.75;;;;;;;24.20;50.81;99275.81;7314585;19;129424;-40
2023/03/15 09:53:43;;;;;;;44.80;2.57;;;;;;;24.29;50.61;99286.19;7312003;19;129477;-41
2023/03/15 09:56:23;;;;;;;35.65;1.95;;;;;;;24.41;50.72;99276.97;7313068;19;130195;-41
2023/03/15 09:58:52;;;;;;;36.33;2.22;;;;;;;24.44;50.29;99278.47;7311143;19;129757;-40
2023/03/15 10:01:24;;;;;;;37.13;2.25;;;;;;;24.47;50.57;99278.13;7312511;19;128948;-39
2023/03/15 10:03:51;;;;;;;73.65;4.00;;;;;;;24.54;50.34;99286.16;7312673;19;129032;-40
2023/03/15 10:06:37;;;;;;;35.92;1.98;;;;;;;24.62;49.92;99284.34;7312078;19;129074;-40
2023/03/15 10:09:11;;;;;;;85.80;5.05;;;;;;;24.66;49.44;99288.28;7312538;19;129942;-42
2023/03/15 10:12:10;;;;;;;71.07;4.35;;;;;;;24.64;49.35;99292.06;7305617;19;130757;-41
2023/03/15 10:14:57;;;;;;;39.70;2.30;;;;;;;24.57;49.80;99291.91;7313728;19;130910;-41
2023/03/15 10:17:58;;;;;;;10.87;0.90;;;;;;;24.48;49.63;99292.09;7313893;19;129359;-39
2023/03/15 10:20:34;;;;;;;44.20;2.47;;;;;;;24.35;50.34;99298.66;7311170;19;131036;-40
2023/03/15 10:23:14;;;;;;;42.88;2.63;;;;;;;24.18;51.24;99288.31;7309783;19;129058;-40
2023/03/15 10:25:39;;;;;;;65.63;3.85;;;;;;;24.07;50.98;99292.09;7310409;19;129559;-40
2023/03/15 10:28:24;;;;;;;37.63;2.03;;;;;;;23.98;51.10;99310.63;7313267;19;130001;-40
2023/03/15 10:30:50;;;;;;;92.75;5.55;;;;;;;23.90;51.10;99319.25;7310055;19;129762;-41
2023/03/15 10:33:18;;;;;;;123.28;7.05;;;;;;;23.86;51.69;99317.97;7298757;19;131298;-42
2023/03/15 10:35:44;;;;;;;73.13;3.92;;;;;;;23.83;51.97;99313.00;7297312;19;129425;-39
2023/03/15 10:38:20;;;;;;;69.43;4.27;;;;;;;23.87;51.86;99319.59;7310447;19;129346;-40
2023/03/15 10:40:47;;;;;;;40.77;2.43;;;;;;;23.93;51.42;99313.69;7313642;19;129428;-39
2023/03/15 10:43:16;;;;;;;61.88;3.58;;;;;;;23.95;51.44;99311.72;7311216;19;129308;-40
2023/03/15 10:45:45;;;;;;;64.10;3.45;;;;;;;24.02;51.57;99315.38;7312062;19;129183;-39
2023/03/15 10:48:10;;;;;;;96.60;5.72;;;;;;;24.15;51.28;99320.97;7311021;19;129406;-41
2023/03/15 10:50:38;;;;;;;37.57;2.13;;;;;;;24.23;50.81;99326.25;7308484;19;129403;-37
2023/03/15 10:53:10;;;;;;;11.02;0.82;;;;;;;24.26;50.28;99320.66;7311395;19;129109;-40
2023/03/15 10:55:42;;;;;;;60.20;3.33;;;;;;;24.35;50.54;99324.94;7311580;19;129651;-39
2023/03/15 10:58:30;;;;;;;81.30;4.40;;;;;;;24.43;50.06;99326.72;7312005;19;129735;-40
2023/03/15 11:00:58;;;;;;;46.75;2.55;;;;;;;24.49;50.56;99326.91;7311789;19;129352;-40
2023/03/15 11:03:24;;;;;;;37.60;2.15;;;;;;;24.64;49.87;99323.63;7309536;19;129069;-39
2023/03/15 11:05:52;;;;;;;52.20;3.03;;;;;;;24.68;49.93;99322.31;7308888;19;129203;-41
2023/03/15 11:08:21;;;;;;;41.63;2.42;;;;;;;24.67;50.01;99312.75;7310845;19;130786;-40
2023/03/15 11:10:55;;;;;;;104.68;5.97;;;;;;;24.76;49.43;99317.06;7311249;19;130621;-40
2023/03/15 11:13:24;;;;;;;37.25;2.10;;;;;;;24.66;49.05;99306.69;7310577;19;129011;-39
2023/03/15 11:16:02;;;;;;;67.13;3.97;;;;;;;24.70;49.78;99318.53;7309946;19;129367;-39
2023/03/15 11:18:43;;;;;;;55.20;3.17;;;;;;;24.67;49.88;99318.03;7305841;19;130225;-38
2023/03/15 11:21:13;;;;;;;30.98;1.83;;;;;;;24.56;49.78;99326.25;7312910;19;130315;-40